N997BO KSLC-KSJC
Flight info
| Callsign | N997BO |
|---|---|
| Flight time | 1h 25m |
| Altitude | 43000 |
| Route | DEZRT2 MVA GYLET STUBL RAZRR5 |
| Aircraft | C700/M-SBDGHM1RWXY/LB2 |
Departure
| Time | 2026-05-05 03:32 |
|---|---|
| Airport | Salt Lake City International Airport (KSLC) |
Arrival
| Time | 2026-05-05 04:58 |
|---|---|
| Airport | Norman Y. Mineta San Jose International Airport (KSJC) |
| Time | Latitude | Longitude | Altitude | Speed | Heading |
|---|---|---|---|---|---|
| 2026-05-05 02:58 | 40.77609 | -111.95891 | 4243 ft | 0 kts | 180° |
| 2026-05-05 03:24 | 40.77603 | -111.95891 | 4239 ft | 4 kts | 180° |
| 2026-05-05 03:24 | 40.77581 | -111.95925 | 4238 ft | 6 kts | 261° |
| 2026-05-05 03:24 | 40.77578 | -111.95994 | 4238 ft | 9 kts | 265° |
| 2026-05-05 03:25 | 40.77611 | -111.96059 | 4238 ft | 11 kts | 357° |
| 2026-05-05 03:25 | 40.77692 | -111.96065 | 4236 ft | 7 kts | 358° |
| 2026-05-05 03:25 | 40.77751 | -111.96066 | 4235 ft | 10 kts | 359° |
| 2026-05-05 03:25 | 40.77811 | -111.96065 | 4235 ft | 8 kts | 8° |
| 2026-05-05 03:26 | 40.77866 | -111.96020 | 4236 ft | 11 kts | 33° |
| 2026-05-05 03:26 | 40.77949 | -111.96002 | 4235 ft | 14 kts | 360° |
| 2026-05-05 03:26 | 40.78055 | -111.96003 | 4237 ft | 17 kts | 360° |
| 2026-05-05 03:26 | 40.78179 | -111.96003 | 4227 ft | 19 kts | 360° |
| 2026-05-05 03:27 | 40.78320 | -111.96004 | 4224 ft | 22 kts | 360° |
| 2026-05-05 03:27 | 40.78391 | -111.96005 | 4224 ft | 6 kts | 359° |
| 2026-05-05 03:27 | 40.78452 | -111.96004 | 4224 ft | 11 kts | 0° |
| 2026-05-05 03:27 | 40.78546 | -111.96004 | 4225 ft | 17 kts | 360° |
| 2026-05-05 03:28 | 40.78648 | -111.96005 | 4223 ft | 9 kts | 360° |
| 2026-05-05 03:28 | 40.78738 | -111.96005 | 4223 ft | 17 kts | 360° |
| 2026-05-05 03:28 | 40.78844 | -111.96005 | 4223 ft | 13 kts | 0° |
| 2026-05-05 03:28 | 40.78956 | -111.96004 | 4224 ft | 19 kts | 1° |
| 2026-05-05 03:29 | 40.79076 | -111.96005 | 4224 ft | 17 kts | 358° |
| 2026-05-05 03:29 | 40.79197 | -111.96006 | 4224 ft | 19 kts | 1° |
| 2026-05-05 03:29 | 40.79336 | -111.96005 | 4225 ft | 23 kts | 360° |
| 2026-05-05 03:29 | 40.79499 | -111.96006 | 4225 ft | 24 kts | 0° |
| 2026-05-05 03:30 | 40.79641 | -111.96005 | 4225 ft | 17 kts | 1° |
| 2026-05-05 03:30 | 40.79740 | -111.96004 | 4225 ft | 11 kts | 359° |
| 2026-05-05 03:30 | 40.79825 | -111.96004 | 4226 ft | 13 kts | 0° |
| 2026-05-05 03:30 | 40.79889 | -111.96029 | 4227 ft | 8 kts | 294° |
| 2026-05-05 03:31 | 40.79888 | -111.96105 | 4225 ft | 10 kts | 267° |
| 2026-05-05 03:31 | 40.79854 | -111.96190 | 4226 ft | 12 kts | 216° |
| 2026-05-05 03:31 | 40.79767 | -111.96208 | 4225 ft | 18 kts | 181° |
| 2026-05-05 03:31 | 40.79453 | -111.96205 | 4227 ft | 87 kts | 179° |
| 2026-05-05 03:32 | 40.78549 | -111.96202 | 4346 ft | 166 kts | 180° |
| 2026-05-05 03:32 | 40.77241 | -111.96169 | 5351 ft | 197 kts | 176° |
| 2026-05-05 03:32 | 40.75815 | -111.96264 | 6897 ft | 212 kts | 187° |
| 2026-05-05 03:32 | 40.74461 | -111.97074 | 8307 ft | 220 kts | 219° |
| 2026-05-05 03:33 | 40.73536 | -111.98707 | 9402 ft | 215 kts | 243° |
| 2026-05-05 03:33 | 40.73061 | -112.00499 | 9635 ft | 207 kts | 256° |
| 2026-05-05 03:33 | 40.73049 | -112.02436 | 9321 ft | 218 kts | 279° |
| 2026-05-05 03:33 | 40.73554 | -112.04215 | 9756 ft | 200 kts | 293° |
| 2026-05-05 03:34 | 40.74237 | -112.05833 | 10118 ft | 208 kts | 299° |
| 2026-05-05 03:34 | 40.75005 | -112.07633 | 10305 ft | 233 kts | 291° |
| 2026-05-05 03:34 | 40.75604 | -112.09651 | 9995 ft | 239 kts | 287° |
| 2026-05-05 03:34 | 40.76209 | -112.11813 | 10088 ft | 270 kts | 289° |
| 2026-05-05 03:35 | 40.77024 | -112.14201 | 10931 ft | 300 kts | 294° |
| 2026-05-05 03:35 | 40.77957 | -112.16777 | 12222 ft | 315 kts | 293° |
| 2026-05-05 03:35 | 40.78876 | -112.19417 | 13925 ft | 320 kts | 293° |
| 2026-05-05 03:35 | 40.79817 | -112.22181 | 14906 ft | 348 kts | 294° |
| 2026-05-05 03:36 | 40.80851 | -112.25193 | 15983 ft | 352 kts | 294° |
| 2026-05-05 03:36 | 40.81844 | -112.28056 | 18181 ft | 343 kts | 295° |
| 2026-05-05 03:36 | 40.82854 | -112.30980 | 19155 ft | 357 kts | 295° |
| 2026-05-05 03:36 | 40.83889 | -112.34004 | 20283 ft | 363 kts | 294° |
| 2026-05-05 03:37 | 40.84941 | -112.37071 | 21327 ft | 371 kts | 294° |
| 2026-05-05 03:37 | 40.86009 | -112.40208 | 22307 ft | 379 kts | 291° |
| 2026-05-05 03:37 | 40.86731 | -112.43569 | 23334 ft | 383 kts | 277° |
| 2026-05-05 03:37 | 40.86934 | -112.47044 | 24178 ft | 388 kts | 268° |
| 2026-05-05 03:38 | 40.86724 | -112.50624 | 25031 ft | 394 kts | 264° |
| 2026-05-05 03:38 | 40.86478 | -112.54251 | 25902 ft | 399 kts | 264° |
| 2026-05-05 03:38 | 40.86235 | -112.57923 | 26757 ft | 404 kts | 264° |
| 2026-05-05 03:38 | 40.85918 | -112.61638 | 27615 ft | 409 kts | 263° |
| 2026-05-05 03:39 | 40.85625 | -112.65400 | 28444 ft | 415 kts | 264° |
| 2026-05-05 03:39 | 40.85335 | -112.69214 | 29248 ft | 420 kts | 263° |
| 2026-05-05 03:39 | 40.85017 | -112.73073 | 30041 ft | 424 kts | 262° |
| 2026-05-05 03:39 | 40.84690 | -112.76945 | 30899 ft | 424 kts | 263° |
| 2026-05-05 03:40 | 40.84371 | -112.80821 | 31647 ft | 427 kts | 263° |
| 2026-05-05 03:40 | 40.84163 | -112.84742 | 32384 ft | 430 kts | 269° |
| 2026-05-05 03:40 | 40.84199 | -112.88693 | 33209 ft | 429 kts | 269° |
| 2026-05-05 03:40 | 40.84214 | -112.92594 | 34248 ft | 420 kts | 268° |
| 2026-05-05 03:41 | 40.84215 | -112.96410 | 35203 ft | 412 kts | 268° |
| 2026-05-05 03:41 | 40.84226 | -113.00169 | 36100 ft | 405 kts | 268° |
| 2026-05-05 03:41 | 40.84240 | -113.03856 | 36940 ft | 399 kts | 267° |
| 2026-05-05 03:41 | 40.84250 | -113.07494 | 37736 ft | 393 kts | 267° |
| 2026-05-05 03:42 | 40.84256 | -113.11079 | 38460 ft | 388 kts | 266° |
| 2026-05-05 03:42 | 40.84260 | -113.14634 | 38843 ft | 389 kts | 267° |
| 2026-05-05 03:42 | 40.84265 | -113.18213 | 39172 ft | 390 kts | 267° |
| 2026-05-05 03:42 | 40.84270 | -113.21789 | 39516 ft | 390 kts | 267° |
| 2026-05-05 03:43 | 40.84274 | -113.25373 | 39847 ft | 391 kts | 267° |
| 2026-05-05 03:43 | 40.84275 | -113.28970 | 40162 ft | 391 kts | 267° |
| 2026-05-05 03:43 | 40.84275 | -113.32562 | 40473 ft | 392 kts | 267° |
| 2026-05-05 03:43 | 40.84275 | -113.36161 | 40770 ft | 392 kts | 267° |
| 2026-05-05 03:44 | 40.84274 | -113.39764 | 41062 ft | 393 kts | 267° |
| 2026-05-05 03:44 | 40.84272 | -113.43374 | 41339 ft | 393 kts | 268° |
| 2026-05-05 03:44 | 40.84267 | -113.46994 | 41539 ft | 396 kts | 268° |
| 2026-05-05 03:44 | 40.84263 | -113.50628 | 41815 ft | 396 kts | 268° |
| 2026-05-05 03:45 | 40.84257 | -113.54263 | 42079 ft | 396 kts | 268° |
| 2026-05-05 03:45 | 40.84250 | -113.57903 | 42332 ft | 397 kts | 268° |
| 2026-05-05 03:45 | 40.84241 | -113.61541 | 42589 ft | 397 kts | 268° |
| 2026-05-05 03:45 | 40.84232 | -113.65194 | 42706 ft | 400 kts | 268° |
| 2026-05-05 03:46 | 40.84208 | -113.72652 | 42717 ft | 411 kts | 268° |
| 2026-05-05 03:46 | 40.84180 | -113.80302 | 42729 ft | 422 kts | 268° |
| 2026-05-05 03:47 | 40.84144 | -113.88142 | 42745 ft | 432 kts | 268° |
| 2026-05-05 03:47 | 40.84094 | -113.96159 | 42745 ft | 441 kts | 268° |
| 2026-05-05 03:48 | 40.84041 | -114.04346 | 42757 ft | 450 kts | 268° |
| 2026-05-05 03:48 | 40.83981 | -114.12628 | 42747 ft | 453 kts | 268° |
| 2026-05-05 03:49 | 40.83914 | -114.20942 | 42756 ft | 452 kts | 268° |
| 2026-05-05 03:49 | 40.83842 | -114.29227 | 42764 ft | 450 kts | 268° |
| 2026-05-05 03:50 | 40.83764 | -114.37473 | 42767 ft | 448 kts | 268° |
| 2026-05-05 03:50 | 40.83680 | -114.45708 | 42765 ft | 450 kts | 268° |
| 2026-05-05 03:51 | 40.83589 | -114.54002 | 42781 ft | 453 kts | 268° |
| 2026-05-05 03:51 | 40.83444 | -114.62357 | 42781 ft | 455 kts | 264° |
| 2026-05-05 03:52 | 40.82088 | -114.70467 | 42775 ft | 452 kts | 250° |
| 2026-05-05 03:52 | 40.79200 | -114.77795 | 42777 ft | 451 kts | 236° |
| 2026-05-05 03:53 | 40.75006 | -114.83841 | 42772 ft | 452 kts | 222° |
| 2026-05-05 03:53 | 40.70096 | -114.89035 | 42781 ft | 453 kts | 221° |
| 2026-05-05 03:54 | 40.65177 | -114.94250 | 42787 ft | 455 kts | 220° |
| 2026-05-05 03:54 | 40.60238 | -114.99452 | 42783 ft | 454 kts | 220° |
| 2026-05-05 03:55 | 40.55328 | -115.04627 | 42783 ft | 451 kts | 220° |
| 2026-05-05 03:55 | 40.50428 | -115.09774 | 42784 ft | 450 kts | 220° |
| 2026-05-05 03:56 | 40.45527 | -115.14916 | 42793 ft | 452 kts | 220° |
| 2026-05-05 03:56 | 40.40599 | -115.20075 | 42793 ft | 454 kts | 220° |
| 2026-05-05 03:57 | 40.35654 | -115.25242 | 42790 ft | 455 kts | 220° |
| 2026-05-05 03:57 | 40.30712 | -115.30395 | 42786 ft | 452 kts | 220° |
| 2026-05-05 03:58 | 40.25793 | -115.35518 | 42784 ft | 451 kts | 220° |
| 2026-05-05 03:58 | 40.20876 | -115.40623 | 42789 ft | 452 kts | 220° |
| 2026-05-05 03:59 | 40.15941 | -115.45742 | 42792 ft | 453 kts | 220° |
| 2026-05-05 03:59 | 40.10991 | -115.50864 | 42793 ft | 455 kts | 220° |
| 2026-05-05 04:00 | 40.06030 | -115.55988 | 42803 ft | 454 kts | 220° |
| 2026-05-05 04:00 | 40.01087 | -115.61085 | 42819 ft | 452 kts | 220° |
| 2026-05-05 04:01 | 39.96152 | -115.66164 | 42830 ft | 452 kts | 220° |
| 2026-05-05 04:01 | 39.91207 | -115.71241 | 42830 ft | 453 kts | 220° |
| 2026-05-05 04:02 | 39.86258 | -115.76315 | 42831 ft | 453 kts | 220° |
| 2026-05-05 04:02 | 39.82144 | -115.80524 | 42848 ft | 453 kts | 220° |
| 2026-05-05 04:03 | 39.76382 | -115.86411 | 42850 ft | 454 kts | 220° |
| 2026-05-05 04:03 | 39.71409 | -115.91480 | 42860 ft | 454 kts | 219° |
| 2026-05-05 04:04 | 39.66440 | -115.96537 | 42858 ft | 455 kts | 219° |
| 2026-05-05 04:04 | 39.62260 | -116.00782 | 42859 ft | 456 kts | 219° |
| 2026-05-05 04:05 | 39.57265 | -116.05847 | 42863 ft | 457 kts | 219° |
| 2026-05-05 04:05 | 39.52267 | -116.10905 | 42865 ft | 455 kts | 219° |
| 2026-05-05 04:06 | 39.47316 | -116.15905 | 42864 ft | 454 kts | 219° |
| 2026-05-05 04:06 | 39.42310 | -116.20954 | 42867 ft | 453 kts | 219° |
| 2026-05-05 04:07 | 39.37372 | -116.25922 | 42875 ft | 453 kts | 219° |
| 2026-05-05 04:07 | 39.32400 | -116.30917 | 42866 ft | 453 kts | 219° |
| 2026-05-05 04:08 | 39.27489 | -116.35991 | 42865 ft | 451 kts | 224° |
| 2026-05-05 04:08 | 39.23495 | -116.42253 | 42878 ft | 449 kts | 238° |
| 2026-05-05 04:09 | 39.20574 | -116.49290 | 42887 ft | 448 kts | 242° |
| 2026-05-05 04:09 | 39.17671 | -116.56406 | 42895 ft | 449 kts | 242° |
| 2026-05-05 04:10 | 39.14767 | -116.63559 | 42888 ft | 453 kts | 242° |
| 2026-05-05 04:10 | 39.11823 | -116.70768 | 42893 ft | 456 kts | 242° |
| 2026-05-05 04:11 | 39.08867 | -116.78002 | 42889 ft | 456 kts | 242° |
| 2026-05-05 04:11 | 39.05915 | -116.85204 | 42884 ft | 454 kts | 242° |
| 2026-05-05 04:12 | 39.02969 | -116.92375 | 42885 ft | 453 kts | 242° |
| 2026-05-05 04:12 | 39.00018 | -116.99542 | 42880 ft | 453 kts | 242° |
| 2026-05-05 04:13 | 38.97064 | -117.06701 | 42880 ft | 454 kts | 242° |
| 2026-05-05 04:13 | 38.94104 | -117.13855 | 42877 ft | 454 kts | 242° |
| 2026-05-05 04:14 | 38.91136 | -117.21013 | 42880 ft | 455 kts | 242° |
| 2026-05-05 04:14 | 38.88144 | -117.28213 | 42876 ft | 459 kts | 242° |
| 2026-05-05 04:15 | 38.85128 | -117.35454 | 42873 ft | 461 kts | 241° |
| 2026-05-05 04:15 | 38.82105 | -117.42694 | 42859 ft | 458 kts | 241° |
| 2026-05-05 04:16 | 38.79114 | -117.49843 | 42854 ft | 453 kts | 241° |
| 2026-05-05 04:16 | 38.76151 | -117.56907 | 42853 ft | 455 kts | 241° |
| 2026-05-05 04:17 | 38.73141 | -117.64066 | 42855 ft | 459 kts | 241° |
| 2026-05-05 04:17 | 38.70103 | -117.71277 | 42859 ft | 460 kts | 241° |
| 2026-05-05 04:18 | 38.67071 | -117.78456 | 42854 ft | 457 kts | 241° |
| 2026-05-05 04:18 | 38.64048 | -117.85597 | 42849 ft | 455 kts | 241° |
| 2026-05-05 04:19 | 38.61033 | -117.92703 | 42841 ft | 453 kts | 241° |
| 2026-05-05 04:19 | 38.57920 | -117.99711 | 42835 ft | 454 kts | 235° |
| 2026-05-05 04:20 | 38.53667 | -118.05690 | 42837 ft | 457 kts | 220° |
| 2026-05-05 04:20 | 38.48480 | -118.10425 | 42838 ft | 460 kts | 216° |
| 2026-05-05 04:21 | 38.43232 | -118.15090 | 42832 ft | 460 kts | 216° |
| 2026-05-05 04:21 | 38.37992 | -118.19717 | 42830 ft | 456 kts | 216° |
| 2026-05-05 04:22 | 38.32833 | -118.24275 | 42824 ft | 453 kts | 216° |
| 2026-05-05 04:22 | 38.27621 | -118.28868 | 42825 ft | 453 kts | 216° |
| 2026-05-05 04:23 | 38.22419 | -118.33444 | 42830 ft | 456 kts | 216° |
| 2026-05-05 04:23 | 38.17195 | -118.38033 | 42837 ft | 457 kts | 215° |
| 2026-05-05 04:24 | 38.11945 | -118.42634 | 42831 ft | 458 kts | 216° |
| 2026-05-05 04:25 | 38.04132 | -118.49469 | 42843 ft | 456 kts | 215° |
| 2026-05-05 04:25 | 37.98910 | -118.54026 | 42843 ft | 455 kts | 215° |
| 2026-05-05 04:26 | 37.93700 | -118.58566 | 42858 ft | 454 kts | 215° |
| 2026-05-05 04:26 | 37.88492 | -118.63095 | 42881 ft | 453 kts | 215° |
| 2026-05-05 04:27 | 37.83312 | -118.67592 | 42923 ft | 451 kts | 215° |
| 2026-05-05 04:27 | 37.78114 | -118.72097 | 42956 ft | 455 kts | 215° |
| 2026-05-05 04:28 | 37.72860 | -118.76644 | 42994 ft | 460 kts | 215° |
| 2026-05-05 04:28 | 37.67587 | -118.81197 | 43007 ft | 458 kts | 215° |
| 2026-05-05 04:29 | 37.62342 | -118.85720 | 43002 ft | 456 kts | 215° |
| 2026-05-05 04:29 | 37.57123 | -118.90212 | 43000 ft | 453 kts | 215° |
| 2026-05-05 04:30 | 37.51925 | -118.94691 | 42981 ft | 452 kts | 217° |
| 2026-05-05 04:30 | 37.49508 | -118.97225 | 42676 ft | 456 kts | 224° |
| 2026-05-05 04:30 | 37.47377 | -119.00169 | 42081 ft | 454 kts | 231° |
| 2026-05-05 04:30 | 37.45583 | -119.03410 | 41502 ft | 448 kts | 238° |
| 2026-05-05 04:31 | 37.44158 | -119.06860 | 40889 ft | 441 kts | 245° |
| 2026-05-05 04:31 | 37.43109 | -119.10458 | 40311 ft | 435 kts | 251° |
| 2026-05-05 04:31 | 37.42262 | -119.14081 | 39764 ft | 429 kts | 252° |
| 2026-05-05 04:31 | 37.41410 | -119.17658 | 39204 ft | 425 kts | 251° |
| 2026-05-05 04:32 | 37.40553 | -119.21216 | 38637 ft | 425 kts | 251° |
| 2026-05-05 04:32 | 37.39702 | -119.24781 | 38033 ft | 427 kts | 251° |
| 2026-05-05 04:32 | 37.38854 | -119.28346 | 37489 ft | 437 kts | 252° |
| 2026-05-05 04:32 | 37.37966 | -119.32063 | 36899 ft | 450 kts | 252° |
| 2026-05-05 04:33 | 37.37054 | -119.35861 | 36312 ft | 458 kts | 252° |
| 2026-05-05 04:33 | 37.36120 | -119.39754 | 35702 ft | 459 kts | 252° |
| 2026-05-05 04:33 | 37.35212 | -119.43540 | 35108 ft | 459 kts | 252° |
| 2026-05-05 04:33 | 37.34289 | -119.47375 | 34506 ft | 459 kts | 252° |
| 2026-05-05 04:34 | 37.33363 | -119.51213 | 33889 ft | 459 kts | 252° |
| 2026-05-05 04:34 | 37.32431 | -119.55067 | 33264 ft | 464 kts | 253° |
| 2026-05-05 04:34 | 37.31479 | -119.59007 | 32639 ft | 480 kts | 253° |
| 2026-05-05 04:34 | 37.30492 | -119.63085 | 32015 ft | 495 kts | 253° |
| 2026-05-05 04:35 | 37.29479 | -119.67262 | 31350 ft | 504 kts | 253° |
| 2026-05-05 04:35 | 37.28456 | -119.71468 | 30686 ft | 511 kts | 254° |
| 2026-05-05 04:35 | 37.27411 | -119.75756 | 29995 ft | 519 kts | 254° |
| 2026-05-05 04:35 | 37.26347 | -119.80122 | 29276 ft | 518 kts | 254° |
| 2026-05-05 04:36 | 37.25297 | -119.84414 | 28613 ft | 505 kts | 254° |
| 2026-05-05 04:36 | 37.24283 | -119.88555 | 27948 ft | 487 kts | 254° |
| 2026-05-05 04:36 | 37.23308 | -119.92527 | 27317 ft | 467 kts | 254° |
| 2026-05-05 04:36 | 37.22592 | -119.96420 | 26756 ft | 450 kts | 264° |
| 2026-05-05 04:37 | 37.22195 | -120.00266 | 26280 ft | 441 kts | 264° |
| 2026-05-05 04:37 | 37.21793 | -120.04079 | 25790 ft | 441 kts | 264° |
| 2026-05-05 04:37 | 37.21382 | -120.07906 | 25340 ft | 444 kts | 264° |
| 2026-05-05 04:37 | 37.20972 | -120.11747 | 24872 ft | 445 kts | 264° |
| 2026-05-05 04:38 | 37.20566 | -120.15594 | 24379 ft | 444 kts | 263° |
| 2026-05-05 04:38 | 37.20157 | -120.19420 | 23895 ft | 440 kts | 263° |
| 2026-05-05 04:38 | 37.19750 | -120.23191 | 23389 ft | 433 kts | 263° |
| 2026-05-05 04:38 | 37.19350 | -120.26903 | 22902 ft | 425 kts | 263° |
| 2026-05-05 04:39 | 37.18959 | -120.30536 | 22444 ft | 417 kts | 263° |
| 2026-05-05 04:39 | 37.18572 | -120.34118 | 21991 ft | 412 kts | 263° |
| 2026-05-05 04:39 | 37.18186 | -120.37667 | 21543 ft | 409 kts | 263° |
| 2026-05-05 04:39 | 37.17801 | -120.41190 | 21109 ft | 406 kts | 263° |
| 2026-05-05 04:40 | 37.17413 | -120.44689 | 20664 ft | 404 kts | 262° |
| 2026-05-05 04:40 | 37.17026 | -120.48159 | 20226 ft | 400 kts | 262° |
| 2026-05-05 04:40 | 37.16645 | -120.51591 | 19779 ft | 395 kts | 263° |
| 2026-05-05 04:40 | 37.16274 | -120.54942 | 19342 ft | 392 kts | 262° |
| 2026-05-05 04:41 | 37.15897 | -120.58314 | 18893 ft | 389 kts | 262° |
| 2026-05-05 04:41 | 37.15522 | -120.61654 | 18470 ft | 385 kts | 262° |
| 2026-05-05 04:41 | 37.15150 | -120.64966 | 18027 ft | 382 kts | 262° |
| 2026-05-05 04:41 | 37.14782 | -120.68237 | 17605 ft | 377 kts | 262° |
| 2026-05-05 04:42 | 37.14417 | -120.71473 | 17197 ft | 373 kts | 262° |
| 2026-05-05 04:42 | 37.14053 | -120.74687 | 16786 ft | 371 kts | 262° |
| 2026-05-05 04:42 | 37.13693 | -120.77884 | 16391 ft | 370 kts | 262° |
| 2026-05-05 04:42 | 37.13344 | -120.81071 | 15994 ft | 368 kts | 263° |
| 2026-05-05 04:43 | 37.12997 | -120.84246 | 15593 ft | 367 kts | 262° |
| 2026-05-05 04:43 | 37.12645 | -120.87409 | 15195 ft | 365 kts | 262° |
| 2026-05-05 04:43 | 37.12295 | -120.90546 | 14798 ft | 362 kts | 262° |
| 2026-05-05 04:43 | 37.11948 | -120.93658 | 14407 ft | 359 kts | 263° |
| 2026-05-05 04:44 | 37.11603 | -120.96741 | 14017 ft | 357 kts | 263° |
| 2026-05-05 04:44 | 37.11260 | -120.99800 | 13611 ft | 352 kts | 263° |
| 2026-05-05 04:44 | 37.10923 | -121.02811 | 13216 ft | 347 kts | 263° |
| 2026-05-05 04:44 | 37.10589 | -121.05782 | 12846 ft | 343 kts | 263° |
| 2026-05-05 04:45 | 37.10256 | -121.08732 | 12484 ft | 341 kts | 263° |
| 2026-05-05 04:45 | 37.09942 | -121.11667 | 12114 ft | 339 kts | 265° |
| 2026-05-05 04:45 | 37.10024 | -121.14595 | 11747 ft | 336 kts | 278° |
| 2026-05-05 04:45 | 37.10369 | -121.17481 | 11390 ft | 332 kts | 279° |
| 2026-05-05 04:46 | 37.10694 | -121.20278 | 11037 ft | 316 kts | 279° |
| 2026-05-05 04:46 | 37.10995 | -121.22934 | 10700 ft | 300 kts | 279° |
| 2026-05-05 04:46 | 37.11285 | -121.25480 | 10378 ft | 292 kts | 279° |
| 2026-05-05 04:46 | 37.11576 | -121.27999 | 10069 ft | 293 kts | 279° |
| 2026-05-05 04:47 | 37.11870 | -121.30535 | 9741 ft | 296 kts | 278° |
| 2026-05-05 04:47 | 37.12160 | -121.33096 | 9405 ft | 298 kts | 278° |
| 2026-05-05 04:47 | 37.12452 | -121.35665 | 9083 ft | 297 kts | 278° |
| 2026-05-05 04:47 | 37.12742 | -121.38205 | 8756 ft | 291 kts | 278° |
| 2026-05-05 04:48 | 37.13023 | -121.40677 | 8442 ft | 282 kts | 277° |
| 2026-05-05 04:48 | 37.13294 | -121.43088 | 8138 ft | 278 kts | 277° |
| 2026-05-05 04:48 | 37.13560 | -121.45482 | 7836 ft | 277 kts | 277° |
| 2026-05-05 04:48 | 37.13826 | -121.47867 | 7533 ft | 277 kts | 277° |
| 2026-05-05 04:49 | 37.14093 | -121.50249 | 7232 ft | 275 kts | 276° |
| 2026-05-05 04:49 | 37.14356 | -121.52615 | 6934 ft | 273 kts | 277° |
| 2026-05-05 04:49 | 37.14620 | -121.54970 | 6638 ft | 273 kts | 276° |
| 2026-05-05 04:49 | 37.14878 | -121.57332 | 6326 ft | 273 kts | 276° |
| 2026-05-05 04:50 | 37.15137 | -121.59682 | 6022 ft | 271 kts | 276° |
| 2026-05-05 04:50 | 37.15391 | -121.62012 | 5725 ft | 269 kts | 277° |
| 2026-05-05 04:50 | 37.15654 | -121.64325 | 5429 ft | 267 kts | 277° |
| 2026-05-05 04:50 | 37.15903 | -121.66565 | 5141 ft | 249 kts | 277° |
| 2026-05-05 04:51 | 37.16053 | -121.67953 | 4964 ft | 237 kts | 277° |
| 2026-05-05 04:51 | 37.16336 | -121.70545 | 4624 ft | 217 kts | 276° |
| 2026-05-05 04:51 | 37.16591 | -121.72349 | 4385 ft | 205 kts | 290° |
| 2026-05-05 04:51 | 37.17537 | -121.73619 | 4183 ft | 205 kts | 333° |
| 2026-05-05 04:52 | 37.18858 | -121.74297 | 4018 ft | 206 kts | 332° |
| 2026-05-05 04:52 | 37.20018 | -121.75318 | 4001 ft | 202 kts | 319° |
| 2026-05-05 04:52 | 37.21101 | -121.76460 | 3839 ft | 200 kts | 319° |
| 2026-05-05 04:52 | 37.22106 | -121.77556 | 3604 ft | 184 kts | 316° |
| 2026-05-05 04:53 | 37.22722 | -121.78236 | 3426 ft | 173 kts | 317° |
| 2026-05-05 04:53 | 37.23623 | -121.79201 | 3177 ft | 163 kts | 318° |
| 2026-05-05 04:53 | 37.24456 | -121.80120 | 2977 ft | 157 kts | 318° |
| 2026-05-05 04:53 | 37.25260 | -121.80993 | 2780 ft | 153 kts | 318° |
| 2026-05-05 04:54 | 37.26060 | -121.81865 | 2567 ft | 152 kts | 318° |
| 2026-05-05 04:54 | 37.26855 | -121.82730 | 2389 ft | 151 kts | 318° |
| 2026-05-05 04:54 | 37.27646 | -121.83592 | 2185 ft | 150 kts | 318° |
| 2026-05-05 04:54 | 37.28433 | -121.84449 | 1975 ft | 150 kts | 319° |
| 2026-05-05 04:55 | 37.29219 | -121.85306 | 1763 ft | 149 kts | 319° |
| 2026-05-05 04:55 | 37.30002 | -121.86159 | 1554 ft | 149 kts | 319° |
| 2026-05-05 04:55 | 37.30753 | -121.86979 | 1438 ft | 129 kts | 319° |
| 2026-05-05 04:55 | 37.31419 | -121.87705 | 1191 ft | 125 kts | 320° |
| 2026-05-05 04:56 | 37.32067 | -121.88410 | 1023 ft | 122 kts | 320° |
| 2026-05-05 04:56 | 37.32705 | -121.89105 | 842 ft | 121 kts | 320° |
| 2026-05-05 04:56 | 37.33330 | -121.89795 | 709 ft | 117 kts | 320° |
| 2026-05-05 04:56 | 37.33944 | -121.90466 | 547 ft | 116 kts | 320° |
| 2026-05-05 04:57 | 37.34542 | -121.91107 | 378 ft | 108 kts | 321° |
| 2026-05-05 04:57 | 37.35100 | -121.91717 | 236 ft | 105 kts | 320° |
| 2026-05-05 04:57 | 37.35655 | -121.92321 | 102 ft | 107 kts | 320° |
| 2026-05-05 04:57 | 37.36152 | -121.92862 | 66 ft | 76 kts | 319° |
| 2026-05-05 04:58 | 37.36463 | -121.93197 | 67 ft | 45 kts | 320° |
| 2026-05-05 04:58 | 37.36575 | -121.93319 | 62 ft | 20 kts | 319° |
| 2026-05-05 04:58 | 37.36656 | -121.93411 | 64 ft | 13 kts | 310° |
| 2026-05-05 04:58 | 37.36680 | -121.93515 | 64 ft | 12 kts | 243° |
| 2026-05-05 04:59 | 37.36659 | -121.93547 | 66 ft | 0 kts | 228° |
| 2026-05-05 05:00 | 37.36657 | -121.93551 | 63 ft | 4 kts | 228° |
| 2026-05-05 05:00 | 37.36611 | -121.93611 | 65 ft | 12 kts | 227° |
| 2026-05-05 05:00 | 37.36559 | -121.93621 | 66 ft | 11 kts | 149° |
| 2026-05-05 05:00 | 37.36486 | -121.93546 | 66 ft | 16 kts | 140° |
| 2026-05-05 05:01 | 37.36388 | -121.93440 | 61 ft | 21 kts | 138° |
| 2026-05-05 05:01 | 37.36287 | -121.93327 | 64 ft | 17 kts | 139° |
| 2026-05-05 05:01 | 37.36199 | -121.93230 | 64 ft | 14 kts | 139° |
| 2026-05-05 05:01 | 37.36132 | -121.93214 | 67 ft | 8 kts | 226° |
| 2026-05-05 05:02 | 37.36143 | -121.93286 | 62 ft | 11 kts | 304° |
| 2026-05-05 05:02 | 37.36134 | -121.93376 | 65 ft | 11 kts | 224° |
| 2026-05-05 05:02 | 37.36120 | -121.93395 | 62 ft | 0 kts | 230° |